Terminal Aerodrome Forecast
Issued by NWS La Crosse, WI

Home | Current Version | Previous Version | Text Only | Print | Product List | Glossary On
Versions: 1 2 3 4 5 6 7 8 9 10 11 12 13 14 15 16 17 18 19 20 21 22 23 24 25 26 27 28 29 30 31 32 33 34 35 36
000
FTUS43 KARX 142320
TAFLSE
TAF
KLSE 142320Z 1500/1524 22007KT P6SM BKN100
     FM150200 VRB03KT P6SM VCSH BKN100
     FM150700 32003KT P6SM -SHRA BKN060
     FM151000 33003KT 5SM -SHRA BKN025
     FM151800 32008KT P6SM VCSH BKN030
     FM152100 32009KT P6SM SCT040=

USA.gov is the U.S. government's official web portal to all federal, state and local government web resources and services.